createdAt,value
2018-04-25T00:01:52.740Z,62.88
2018-04-25T00:04:26.295Z,62.93
2018-04-25T00:06:59.817Z,62.83
2018-04-25T00:09:33.376Z,62.76
2018-04-25T00:12:07.060Z,62.60
2018-04-25T00:14:40.858Z,63.25
2018-04-25T00:17:14.403Z,63.01
2018-04-25T00:19:47.908Z,63.00
2018-04-25T00:22:21.427Z,62.66
2018-04-25T00:24:55.214Z,62.95
2018-04-25T00:27:28.752Z,62.70
2018-04-25T00:30:02.368Z,62.71
2018-04-25T00:32:35.935Z,62.76
2018-04-25T00:35:09.490Z,62.55
2018-04-25T00:37:43.139Z,62.70
2018-04-25T00:40:16.939Z,62.32
2018-04-25T00:42:50.739Z,62.24
2018-04-25T00:45:24.552Z,62.68
2018-04-25T00:47:58.272Z,62.38
2018-04-25T00:50:31.876Z,62.06
2018-04-25T00:53:05.408Z,62.19
2018-04-25T00:55:39.000Z,61.81
2018-04-25T00:58:12.586Z,61.68
2018-04-25T01:00:46.737Z,61.42
2018-04-25T01:03:20.747Z,61.14
2018-04-25T01:05:54.520Z,60.83
2018-04-25T01:08:28.089Z,60.59
2018-04-25T01:11:01.677Z,61.14
2018-04-25T01:13:35.189Z,60.73
2018-04-25T01:16:09.064Z,60.21
2018-04-25T01:18:42.757Z,60.83
2018-04-25T01:21:16.549Z,60.89
2018-04-25T01:23:50.341Z,60.34
2018-04-25T01:26:23.959Z,60.94
2018-04-25T01:28:57.553Z,60.71
2018-04-25T01:31:38.103Z,61.01
2018-04-25T01:34:23.196Z,60.60
2018-04-25T01:36:59.954Z,60.21
2018-04-25T01:39:51.027Z,60.65
2018-04-25T01:42:28.484Z,60.61
2018-04-25T01:45:05.573Z,60.28
2018-04-25T01:47:39.401Z,60.61
2018-04-25T01:50:18.800Z,60.75
2018-04-25T01:53:04.348Z,60.88
2018-04-25T01:55:49.984Z,60.40
2018-04-25T01:58:35.572Z,60.56
2018-04-25T02:01:19.889Z,60.64
2018-04-25T02:03:54.570Z,60.70
2018-04-25T02:06:28.323Z,61.04
2018-04-25T02:09:02.133Z,61.38
2018-04-25T02:11:35.696Z,61.35
2018-04-25T02:14:09.551Z,61.43
2018-04-25T02:16:43.137Z,61.91
2018-04-25T02:19:17.205Z,61.94
2018-04-25T02:21:51.109Z,61.54
2018-04-25T02:24:24.855Z,61.13
2018-04-25T02:26:58.473Z,61.29
2018-04-25T02:29:32.161Z,62.04
2018-04-25T02:32:05.751Z,62.12
2018-04-25T02:34:39.349Z,62.12
2018-04-25T02:37:13.041Z,62.46
2018-04-25T02:39:46.771Z,62.30
2018-04-25T02:42:20.382Z,62.28
2018-04-25T02:44:54.144Z,62.03
2018-04-25T02:47:27.966Z,62.76
2018-04-25T02:50:01.711Z,62.12
2018-04-25T02:52:35.769Z,62.43
2018-04-25T02:55:09.645Z,62.53
2018-04-25T02:57:43.306Z,62.76
2018-04-25T03:00:16.907Z,62.95
2018-04-25T03:02:50.633Z,63.19
2018-04-25T03:05:24.317Z,62.73
2018-04-25T03:07:58.405Z,63.17
2018-04-25T03:10:31.994Z,63.23
2018-04-25T03:13:05.739Z,63.43
2018-04-25T03:15:39.484Z,63.54
2018-04-25T03:18:13.054Z,63.62
2018-04-25T03:20:46.769Z,63.45
2018-04-25T03:23:20.508Z,63.88
2018-04-25T03:25:54.107Z,64.07
2018-04-25T03:28:27.757Z,63.62
2018-04-25T03:31:01.486Z,64.14
2018-04-25T03:33:35.121Z,64.39
2018-04-25T03:36:08.741Z,64.14
2018-04-25T03:38:42.474Z,64.04
2018-04-25T03:41:16.216Z,64.39
2018-04-25T03:43:49.989Z,64.87
2018-04-25T03:46:23.717Z,64.96
2018-04-25T03:48:57.439Z,65.79
2018-04-25T03:51:31.110Z,65.55
2018-04-25T03:54:04.964Z,65.73
2018-04-25T03:56:38.713Z,65.26
2018-04-25T03:59:12.593Z,65.28
2018-04-25T04:01:46.187Z,66.04
2018-04-25T04:04:19.880Z,65.70
2018-04-25T04:06:53.497Z,66.01
2018-04-25T04:09:27.328Z,65.57
2018-04-25T04:12:01.077Z,65.85
2018-04-25T04:14:34.796Z,65.66
2018-04-25T04:17:08.577Z,65.88
2018-04-25T04:19:42.264Z,66.03
2018-04-25T04:22:15.835Z,65.74
2018-04-25T04:24:49.566Z,66.63
2018-04-25T04:27:23.230Z,66.99
2018-04-25T04:29:56.908Z,66.72
2018-04-25T04:32:30.503Z,66.21
2018-04-25T04:35:04.557Z,66.49
2018-04-25T04:37:38.238Z,67.28
2018-04-25T04:40:11.973Z,67.32
2018-04-25T04:42:45.812Z,67.64
2018-04-25T04:45:19.579Z,67.66
2018-04-25T04:47:53.471Z,67.95
2018-04-25T04:50:27.324Z,67.49
2018-04-25T04:53:01.025Z,67.31
2018-04-25T04:55:34.737Z,68.22
2018-04-25T04:58:08.500Z,68.30
2018-04-25T05:00:42.277Z,68.51
2018-04-25T05:03:15.929Z,68.60
2018-04-25T05:05:49.785Z,68.28
2018-04-25T05:08:23.593Z,67.99
2018-04-25T05:10:57.127Z,68.35
2018-04-25T05:13:30.827Z,68.54
2018-04-25T05:16:04.951Z,68.38
2018-04-25T05:18:39.068Z,68.01
2018-04-25T05:21:12.745Z,67.75
2018-04-25T05:23:46.333Z,67.54
2018-04-25T05:26:20.069Z,67.20
2018-04-25T05:28:53.822Z,66.82
2018-04-25T05:31:27.522Z,67.20
2018-04-25T05:34:01.247Z,67.28
2018-04-25T05:36:34.848Z,66.56
2018-04-25T05:39:08.534Z,66.99
2018-04-25T05:41:42.263Z,67.36
2018-04-25T05:44:16.011Z,67.55
2018-04-25T05:46:49.781Z,70.66
2018-04-25T05:49:23.389Z,71.34
2018-04-25T05:51:57.268Z,71.52
2018-04-25T05:54:30.979Z,73.03
2018-04-25T05:57:04.601Z,73.31
2018-04-25T05:59:38.308Z,74.34
2018-04-25T06:02:12.036Z,75.33
2018-04-25T06:04:45.809Z,76.66
2018-04-25T06:07:19.380Z,77.48
2018-04-25T06:09:52.981Z,78.62
2018-04-25T06:12:26.832Z,79.59
2018-04-25T06:15:00.404Z,81.15
2018-04-25T06:17:34.005Z,81.58
2018-04-25T06:20:07.751Z,81.06
2018-04-25T06:22:41.623Z,80.64
2018-04-25T06:25:15.285Z,80.55
2018-04-25T06:27:48.869Z,81.49
2018-04-25T06:30:22.589Z,82.63
2018-04-25T06:32:56.344Z,82.85
2018-04-25T06:35:29.920Z,83.14
2018-04-25T06:38:03.719Z,82.92
2018-04-25T06:40:37.459Z,82.99
2018-04-25T06:43:11.290Z,82.45
2018-04-25T06:45:45.099Z,83.62
2018-04-25T06:48:18.658Z,83.48
2018-04-25T06:50:52.408Z,83.46
2018-04-25T06:53:26.371Z,82.64
2018-04-25T06:55:59.993Z,84.04
2018-04-25T06:58:33.895Z,84.07
2018-04-25T07:01:07.531Z,83.37
2018-04-25T07:03:41.241Z,83.95
2018-04-25T07:06:15.005Z,84.34
2018-04-25T07:08:48.781Z,84.00
2018-04-25T07:11:22.630Z,83.71
2018-04-25T07:13:56.284Z,82.40
2018-04-25T07:16:29.975Z,81.77
2018-04-25T07:19:03.766Z,80.63
2018-04-25T07:21:37.488Z,81.48
2018-04-25T07:24:11.121Z,80.98
2018-04-25T07:26:44.837Z,80.90
2018-04-25T07:29:18.648Z,80.44
2018-04-25T07:31:52.376Z,80.06
2018-04-25T07:34:25.936Z,81.16
2018-04-25T07:36:59.660Z,80.67
2018-04-25T07:39:33.626Z,80.35
2018-04-25T07:42:07.243Z,79.82
2018-04-25T07:44:40.919Z,79.40
2018-04-25T07:47:14.662Z,79.40
2018-04-25T07:49:48.321Z,75.89
2018-04-25T07:52:22.167Z,72.15
2018-04-25T07:54:55.752Z,70.18
2018-04-25T07:57:29.321Z,69.13
2018-04-25T08:00:03.046Z,72.32
2018-04-25T08:02:36.681Z,72.11
2018-04-25T08:05:10.260Z,74.68
2018-04-25T08:07:44.021Z,75.53
2018-04-25T08:10:17.594Z,75.66
2018-04-25T08:13:03.192Z,77.25
2018-04-25T08:15:48.849Z,76.12
2018-04-25T08:18:34.416Z,73.67
2018-04-25T08:21:13.787Z,70.62
2018-04-25T08:23:47.351Z,67.90
2018-04-25T08:26:21.112Z,66.50
2018-04-25T08:28:54.696Z,62.60
2018-04-25T08:31:28.462Z,64.23
2018-04-25T08:34:02.075Z,61.00
2018-04-25T08:36:35.723Z,59.56
2018-04-25T08:39:09.333Z,56.48
2018-04-25T08:41:42.881Z,63.31
2018-04-25T08:44:16.548Z,61.90
2018-04-25T08:46:50.353Z,59.24
2018-04-25T08:49:24.048Z,54.00
2018-04-25T08:51:57.812Z,53.70
2018-04-25T08:54:31.420Z,54.83
2018-04-25T08:57:05.243Z,54.55
2018-04-25T08:59:38.988Z,56.87
2018-04-25T09:02:12.736Z,55.27
2018-04-25T09:04:46.366Z,58.06
2018-04-25T09:07:20.092Z,60.31
2018-04-25T09:09:53.656Z,62.20
2018-04-25T09:12:27.256Z,62.33
2018-04-25T09:15:00.980Z,61.90
2018-04-25T09:17:34.632Z,62.07
2018-04-25T09:20:08.479Z,61.82
2018-04-25T09:22:42.192Z,62.86
2018-04-25T09:25:15.833Z,62.30
2018-04-25T09:27:49.694Z,62.62
2018-04-25T09:30:23.481Z,62.54
2018-04-25T09:32:57.214Z,62.34
2018-04-25T09:35:30.992Z,62.55
2018-04-25T09:38:04.656Z,61.00
2018-04-25T09:40:38.435Z,63.58
2018-04-25T09:43:12.131Z,65.93
2018-04-25T09:45:45.724Z,66.90
2018-04-25T09:48:19.409Z,63.68
2018-04-25T09:50:53.155Z,65.03
2018-04-25T09:53:26.912Z,63.32
2018-04-25T09:56:00.512Z,59.23
2018-04-25T09:58:34.124Z,53.94
2018-04-25T10:01:07.729Z,51.46
2018-04-25T10:03:44.445Z,47.53
2018-04-25T10:06:18.195Z,51.48
2018-04-25T10:08:51.844Z,47.79
2018-04-25T10:11:25.667Z,49.65
2018-04-25T10:13:59.347Z,48.98
2018-04-25T10:16:33.071Z,49.89
2018-04-25T10:21:47.014Z,54.04
2018-04-25T10:24:20.881Z,54.24
2018-04-25T10:26:54.405Z,53.15
2018-04-25T10:29:28.039Z,54.30
2018-04-25T10:32:01.762Z,53.73
2018-04-25T10:34:35.539Z,52.91
2018-04-25T10:37:09.266Z,53.50
2018-04-25T10:39:43.035Z,52.01
2018-04-25T10:42:16.731Z,51.81
2018-04-25T10:44:50.315Z,52.74
2018-04-25T10:47:23.932Z,52.52
2018-04-25T10:49:57.638Z,54.76
2018-04-25T10:52:31.239Z,54.37
2018-04-25T10:55:04.967Z,53.54
2018-04-25T10:57:38.700Z,53.21
2018-04-25T11:00:12.449Z,49.87
2018-04-25T11:02:46.196Z,50.42
2018-04-25T11:05:19.768Z,50.04
2018-04-25T11:07:53.434Z,47.98
2018-04-25T11:10:27.564Z,45.35
2018-04-25T11:13:01.235Z,43.03
2018-04-25T11:15:34.957Z,41.31
2018-04-25T11:18:08.612Z,39.45
2018-04-25T11:20:42.219Z,37.39
2018-04-25T11:23:16.083Z,37.39
2018-04-25T11:25:49.778Z,36.70
2018-04-25T11:28:23.602Z,39.45
2018-04-25T11:30:57.161Z,39.21
2018-04-25T11:33:30.954Z,39.80
2018-04-25T11:36:05.013Z,40.67
2018-04-25T11:38:38.782Z,40.15
2018-04-25T11:41:12.377Z,42.19
2018-04-25T11:43:46.013Z,42.72
2018-04-25T11:46:19.751Z,42.38
2018-04-25T11:48:53.337Z,44.23
2018-04-25T11:51:27.091Z,45.48
2018-04-25T11:54:00.668Z,43.69
2018-04-25T11:56:34.344Z,42.39
2018-04-25T11:59:08.117Z,45.15
2018-04-25T12:01:41.664Z,45.36
2018-04-25T12:04:15.205Z,44.53
2018-04-25T12:06:48.923Z,43.90
2018-04-25T12:09:22.816Z,43.86
2018-04-25T12:11:56.416Z,44.94
2018-04-25T12:14:30.000Z,44.88
2018-04-25T12:17:03.848Z,44.48
2018-04-25T12:19:37.463Z,45.50
2018-04-25T12:22:11.212Z,46.44
2018-04-25T12:24:44.933Z,46.72
2018-04-25T12:27:18.569Z,46.82
2018-04-25T12:29:52.237Z,47.93
2018-04-25T12:32:26.008Z,49.11
2018-04-25T12:34:59.740Z,48.90
2018-04-25T12:37:33.506Z,47.77
2018-04-25T12:40:07.212Z,48.63
2018-04-25T12:42:40.940Z,47.67
2018-04-25T12:45:14.648Z,48.08
2018-04-25T12:47:48.346Z,47.48
2018-04-25T12:50:22.332Z,47.97
2018-04-25T12:52:56.074Z,47.62
2018-04-25T12:55:29.711Z,47.28
2018-04-25T12:58:03.286Z,47.34
2018-04-25T13:00:36.958Z,46.44
2018-04-25T13:03:10.716Z,44.75
2018-04-25T13:05:44.319Z,44.79
2018-04-25T13:08:17.827Z,45.49
2018-04-25T13:10:51.633Z,44.56
2018-04-25T13:13:25.449Z,45.37
2018-04-25T13:15:59.139Z,44.29
2018-04-25T13:18:32.759Z,42.74
2018-04-25T13:21:06.434Z,45.66
2018-04-25T13:23:39.980Z,46.66
2018-04-25T13:26:13.498Z,47.45
2018-04-25T13:28:47.223Z,45.83
2018-04-25T13:31:20.738Z,44.84
2018-04-25T13:33:54.456Z,41.86
2018-04-25T13:36:28.020Z,41.91
2018-04-25T13:39:01.601Z,42.65
2018-04-25T13:41:35.170Z,44.96
2018-04-25T13:44:08.738Z,46.72
2018-04-25T13:46:42.278Z,47.36
2018-04-25T13:49:15.841Z,46.82
2018-04-25T13:51:49.572Z,46.82
2018-04-25T13:54:23.103Z,44.24
2018-04-25T13:56:56.768Z,45.55
2018-04-25T13:59:30.409Z,44.34
2018-04-25T14:02:03.964Z,44.77
2018-04-25T14:04:37.539Z,44.04
2018-04-25T14:07:11.090Z,45.28
2018-04-25T14:09:44.763Z,46.77
2018-04-25T14:12:18.352Z,44.53
2018-04-25T14:14:52.008Z,45.99
2018-04-25T14:17:25.547Z,47.76
2018-04-25T14:19:59.175Z,47.45
2018-04-25T14:22:32.801Z,46.94
2018-04-25T14:25:06.581Z,46.31
2018-04-25T14:27:40.325Z,44.95
2018-04-25T14:30:14.064Z,44.64
2018-04-25T14:32:47.694Z,45.54
2018-04-25T14:35:21.407Z,44.43
2018-04-25T14:37:55.371Z,45.26
2018-04-25T14:40:29.064Z,45.38
2018-04-25T14:43:02.612Z,44.48
2018-04-25T14:45:36.214Z,46.06
2018-04-25T14:48:09.845Z,44.87
2018-04-25T14:50:43.604Z,45.49
2018-04-25T14:53:17.183Z,47.02
2018-04-25T14:55:50.973Z,46.97
2018-04-25T14:58:24.724Z,50.38
2018-04-25T15:00:58.271Z,51.88
2018-04-25T15:03:32.616Z,53.04
2018-04-25T15:06:06.335Z,54.87
2018-04-25T15:08:39.919Z,55.25
2018-04-25T15:11:13.640Z,56.06
2018-04-25T15:13:47.217Z,56.74
2018-04-25T15:16:20.718Z,57.26
2018-04-25T15:18:54.271Z,55.61
2018-04-25T15:21:27.822Z,53.87
2018-04-25T15:24:01.392Z,50.20
2018-04-25T15:26:34.975Z,51.16
2018-04-25T15:29:08.515Z,49.41
2018-04-25T15:31:42.252Z,49.18
2018-04-25T15:34:15.880Z,47.61
2018-04-25T15:36:49.653Z,42.74
2018-04-25T15:39:23.451Z,43.87
2018-04-25T15:41:57.258Z,45.22
2018-04-25T15:44:30.957Z,43.82
2018-04-25T15:47:04.490Z,42.98
2018-04-25T15:49:38.131Z,44.25
2018-04-25T15:52:11.789Z,43.37
2018-04-25T15:54:45.352Z,45.42
2018-04-25T15:57:18.943Z,47.07
2018-04-25T15:59:52.508Z,47.35
2018-04-25T16:02:26.112Z,47.19
2018-04-25T16:04:59.871Z,47.91
2018-04-25T16:07:33.452Z,47.13
2018-04-25T16:10:06.978Z,46.89
2018-04-25T16:12:40.548Z,46.60
2018-04-25T16:15:14.242Z,46.77
2018-04-25T16:17:47.965Z,46.49
2018-04-25T16:20:21.748Z,47.14
2018-04-25T16:22:55.513Z,46.61
2018-04-25T16:25:29.212Z,45.68
2018-04-25T16:28:02.948Z,46.68
2018-04-25T16:30:36.579Z,46.26
2018-04-25T16:33:10.148Z,45.73
2018-04-25T16:35:43.776Z,44.83
2018-04-25T16:38:17.438Z,44.46
2018-04-25T16:40:51.232Z,44.40
2018-04-25T16:43:24.850Z,46.09
2018-04-25T16:45:58.624Z,44.05
2018-04-25T16:48:32.192Z,45.22
2018-04-25T16:51:05.798Z,47.23
2018-04-25T16:53:39.356Z,49.38
2018-04-25T16:56:13.109Z,51.15
2018-04-25T16:58:46.818Z,51.71
2018-04-25T17:01:20.597Z,52.65
2018-04-25T17:03:54.432Z,53.42
2018-04-25T17:06:28.271Z,53.91
2018-04-25T17:09:01.984Z,54.44
2018-04-25T17:11:35.788Z,54.52
2018-04-25T17:14:09.513Z,54.57
2018-04-25T17:16:43.099Z,54.77
2018-04-25T17:19:16.809Z,55.25
2018-04-25T17:21:50.435Z,55.49
2018-04-25T17:24:24.035Z,55.22
2018-04-25T17:26:57.749Z,55.46
2018-04-25T17:29:31.714Z,55.25
2018-04-25T17:32:05.418Z,55.76
2018-04-25T17:34:39.013Z,56.66
2018-04-25T17:37:12.636Z,56.35
2018-04-25T17:39:46.321Z,56.78
2018-04-25T17:42:20.079Z,56.58
2018-04-25T17:44:53.664Z,57.32
2018-04-25T17:47:27.342Z,57.68
2018-04-25T17:50:01.079Z,57.98
2018-04-25T17:52:34.740Z,58.52
2018-04-25T17:55:08.510Z,58.76
2018-04-25T17:57:42.316Z,60.34
2018-04-25T18:00:16.057Z,60.34
2018-04-25T18:02:49.833Z,62.01
2018-04-25T18:05:23.622Z,64.14
2018-04-25T18:07:57.365Z,64.88
2018-04-25T18:10:31.047Z,65.25
2018-04-25T18:13:04.816Z,66.26
2018-04-25T18:15:38.545Z,65.42
2018-04-25T18:18:12.077Z,65.24
2018-04-25T18:20:45.781Z,67.00
2018-04-25T18:23:19.607Z,65.55
2018-04-25T18:25:53.349Z,66.97
2018-04-25T18:28:27.075Z,65.91
2018-04-25T18:31:00.825Z,63.70
2018-04-25T18:33:34.563Z,63.85
2018-04-25T18:36:08.185Z,64.71
2018-04-25T18:38:41.836Z,65.17
2018-04-25T18:41:15.688Z,65.92
2018-04-25T18:43:49.404Z,66.43
2018-04-25T18:46:23.279Z,65.77
2018-04-25T18:48:57.112Z,67.39
2018-04-25T18:51:30.725Z,67.87
2018-04-25T18:54:04.525Z,67.04
2018-04-25T18:56:38.247Z,68.23
2018-04-25T18:59:12.050Z,68.57
2018-04-25T19:01:45.674Z,69.63
2018-04-25T19:04:19.475Z,69.83
2018-04-25T19:06:53.265Z,69.78
2018-04-25T19:09:26.955Z,69.82
2018-04-25T19:12:00.638Z,70.03
2018-04-25T19:14:34.324Z,70.37
2018-04-25T19:17:07.940Z,70.74
2018-04-25T19:19:41.649Z,70.42
2018-04-25T19:22:16.191Z,70.82
2018-04-25T19:24:49.860Z,70.58
2018-04-25T19:27:23.417Z,71.95
2018-04-25T19:29:57.081Z,71.60
2018-04-25T19:32:30.719Z,72.05
2018-04-25T19:35:04.294Z,72.07
2018-04-25T19:37:37.949Z,71.85
2018-04-25T19:40:11.716Z,71.50
2018-04-25T19:42:45.430Z,72.80
2018-04-25T19:45:19.012Z,72.64
2018-04-25T19:47:52.693Z,72.60
2018-04-25T19:50:26.360Z,72.42
2018-04-25T19:53:00.042Z,73.05
2018-04-25T19:55:33.844Z,72.34
2018-04-25T19:58:07.444Z,71.81
2018-04-25T20:00:41.034Z,70.42
2018-04-25T20:03:14.608Z,69.98
2018-04-25T20:05:48.207Z,69.89
2018-04-25T20:08:22.040Z,69.97
2018-04-25T20:10:55.627Z,69.11
2018-04-25T20:13:29.232Z,67.76
2018-04-25T20:16:03.211Z,68.12
2018-04-25T20:18:36.827Z,68.62
2018-04-25T20:21:10.511Z,68.23
2018-04-25T20:23:44.179Z,67.87
2018-04-25T20:26:17.768Z,67.29
2018-04-25T20:28:51.461Z,65.93
2018-04-25T20:31:25.232Z,66.15
2018-04-25T20:33:58.933Z,65.52
2018-04-25T20:36:32.563Z,62.61
2018-04-25T20:39:06.208Z,60.41
2018-04-25T20:41:39.820Z,61.59
2018-04-25T20:44:13.376Z,61.22
2018-04-25T20:46:46.911Z,61.04
2018-04-25T20:49:20.712Z,62.25
2018-04-25T20:51:54.354Z,61.70
2018-04-25T20:54:27.965Z,62.21
2018-04-25T20:57:01.448Z,63.30
2018-04-25T20:59:35.147Z,62.92
2018-04-25T21:02:08.770Z,63.57
2018-04-25T21:04:42.335Z,64.32
2018-04-25T21:07:15.886Z,64.58
2018-04-25T21:09:49.568Z,64.96
2018-04-25T21:12:23.176Z,65.57
2018-04-25T21:14:56.803Z,65.46
2018-04-25T21:17:30.317Z,65.17
2018-04-25T21:20:04.091Z,65.91
2018-04-25T21:22:37.709Z,65.66
2018-04-25T21:25:11.526Z,65.14
2018-04-25T21:27:45.292Z,65.61
2018-04-25T21:30:19.074Z,65.55
2018-04-25T21:32:52.692Z,65.97
2018-04-25T21:35:26.291Z,65.57
2018-04-25T21:37:59.995Z,64.43
2018-04-25T21:40:33.587Z,64.68
2018-04-25T21:43:07.418Z,64.22
2018-04-25T21:45:40.967Z,62.96
2018-04-25T21:48:14.595Z,61.91
2018-04-25T21:50:48.303Z,60.87
2018-04-25T21:53:21.931Z,61.64
2018-04-25T21:58:55.056Z,60.81
2018-04-25T22:01:28.892Z,61.31
2018-04-25T22:04:02.763Z,62.21
2018-04-25T22:06:36.269Z,62.46
2018-04-25T22:09:09.886Z,62.45
2018-04-25T22:11:43.513Z,62.66
2018-04-25T22:14:17.083Z,63.05
2018-04-25T22:16:50.709Z,63.23
2018-04-25T22:19:24.332Z,62.77
2018-04-25T22:21:57.835Z,61.84
2018-04-25T22:24:31.616Z,61.17
2018-04-25T22:27:05.115Z,60.54
2018-04-25T22:29:38.892Z,60.03
2018-04-25T22:32:12.425Z,60.07
2018-04-25T22:34:46.126Z,59.81
2018-04-25T22:37:19.916Z,59.96
2018-04-25T22:39:53.553Z,59.99
2018-04-25T22:42:27.075Z,59.47
2018-04-25T22:45:00.756Z,59.84
2018-04-25T22:47:34.454Z,60.29
2018-04-25T22:50:08.029Z,59.72
2018-04-25T22:52:41.536Z,60.03
2018-04-25T22:55:15.087Z,58.97
2018-04-25T22:57:48.751Z,58.58
2018-04-25T23:00:22.531Z,58.83
2018-04-25T23:02:56.319Z,58.93
2018-04-25T23:05:30.127Z,58.97
2018-04-25T23:08:03.654Z,59.31
2018-04-25T23:10:37.399Z,58.75
2018-04-25T23:13:10.940Z,59.29
2018-04-25T23:15:44.660Z,59.27
2018-04-25T23:18:18.260Z,59.30
2018-04-25T23:20:51.846Z,58.97
2018-04-25T23:23:25.412Z,58.96
2018-04-25T23:25:59.130Z,59.03
2018-04-25T23:28:33.053Z,59.85
2018-04-25T23:31:06.595Z,59.52
2018-04-25T23:33:40.218Z,59.31
2018-04-25T23:36:13.888Z,59.66
2018-04-25T23:38:47.536Z,59.08
2018-04-25T23:41:21.255Z,59.17
2018-04-25T23:43:54.902Z,59.52
2018-04-25T23:46:28.391Z,58.90
2018-04-25T23:49:02.034Z,59.29
2018-04-25T23:51:35.571Z,59.26
2018-04-25T23:54:09.034Z,59.48
2018-04-25T23:56:42.548Z,59.42
2018-04-25T23:59:16.153Z,59.63
